Time;durP1;ratioP1;P1;durP2;ratioP2;P2;SDS_P1;SDS_P2;PMS_P1;PMS_P2;Temp;Humidity;BMP_temperature;BMP_pressure;BME280_temperature;BME280_humidity;BME280_pressure;Samples;Min_cycle;Max_cycle;Signal;HPM_P1;HPM_P2
2022/06/15 00:01:31;;;;;;;7.35;5.82;;;13.70;99.90;;;;;;5050190;28;20080;-65
2022/06/15 00:04:00;;;;;;;6.63;5.50;;;13.70;99.90;;;;;;5051403;28;20420;-67
2022/06/15 00:06:28;;;;;;;8.63;5.85;;;13.70;99.90;;;;;;5050639;28;20037;-65
2022/06/15 00:08:57;;;;;;;7.53;5.80;;;13.70;99.90;;;;;;5051591;28;20182;-66
2022/06/15 00:11:30;;;;;;;6.43;5.65;;;13.60;99.90;;;;;;5049565;28;20131;-65
2022/06/15 00:13:59;;;;;;;8.60;5.90;;;13.60;99.90;;;;;;5053574;28;20119;-65
2022/06/15 00:16:25;;;;;;;7.65;6.03;;;13.60;99.90;;;;;;5051240;28;20102;-65
2022/06/15 00:18:52;;;;;;;9.75;5.85;;;13.60;99.90;;;;;;5053325;28;20067;-66
2022/06/15 00:21:18;;;;;;;13.40;6.47;;;13.60;99.90;;;;;;5053190;28;20044;-65
2022/06/15 00:23:45;;;;;;;8.20;5.38;;;13.50;99.90;;;;;;5050091;28;20076;-65
2022/06/15 00:26:13;;;;;;;6.85;6.15;;;13.50;99.90;;;;;;5049947;28;20058;-65
2022/06/15 00:28:39;;;;;;;10.73;6.75;;;13.50;99.90;;;;;;5052912;28;20091;-65
2022/06/15 00:31:05;;;;;;;7.18;5.95;;;13.40;99.90;;;;;;5051809;28;20393;-65
2022/06/15 00:33:31;;;;;;;7.93;6.13;;;13.40;99.90;;;;;;5050881;28;20466;-65
2022/06/15 00:36:18;;;;;;;7.63;6.28;;;13.40;99.90;;;;;;5052914;28;20037;-65
2022/06/15 00:38:49;;;;;;;8.90;6.53;;;13.40;99.90;;;;;;5050356;28;20397;-65
2022/06/15 00:41:20;;;;;;;6.75;5.93;;;13.30;99.90;;;;;;5045862;28;20559;-66
2022/06/15 00:43:52;;;;;;;9.63;6.18;;;13.30;99.90;;;;;;5063910;28;20362;-67
2022/06/15 00:46:40;;;;;;;6.93;6.25;;;13.30;99.90;;;;;;5062902;28;20049;-66
2022/06/15 00:49:23;;;;;;;11.38;6.50;;;13.20;99.90;;;;;;5066996;28;20123;-65
2022/06/15 00:51:53;;;;;;;11.05;6.75;;;13.20;99.90;;;;;;5067382;28;20052;-65
2022/06/15 00:54:21;;;;;;;9.00;6.00;;;13.10;99.90;;;;;;5068551;28;20051;-65
2022/06/15 00:56:47;;;;;;;10.25;7.03;;;13.10;99.90;;;;;;5067087;28;20053;-65
2022/06/15 00:59:21;;;;;;;8.80;6.20;;;13.30;99.90;;;;;;5067274;28;20044;-65
2022/06/15 01:01:47;;;;;;;7.55;6.75;;;13.10;99.90;;;;;;5066829;28;20621;-65
2022/06/15 01:04:12;;;;;;;8.27;6.35;;;13.10;99.90;;;;;;5067473;28;20389;-65
2022/06/15 01:07:04;;;;;;;11.02;7.32;;;13.00;99.90;;;;;;5067449;28;20044;-65
2022/06/15 01:09:35;;;;;;;6.65;6.03;;;13.00;99.90;;;;;;5067766;28;20053;-65
2022/06/15 01:12:20;;;;;;;11.45;7.53;;;11.70;99.90;;;;;;5068332;28;20056;-65
2022/06/15 01:15:03;;;;;;;10.50;7.03;;;13.00;99.90;;;;;;5066758;28;20548;-65
2022/06/15 01:18:06;;;;;;;8.55;6.45;;;12.90;99.90;;;;;;5068322;28;20139;-65
2022/06/15 01:20:40;;;;;;;9.88;6.47;;;12.90;99.90;;;;;;5068128;28;20055;-65
2022/06/15 01:23:26;;;;;;;7.55;6.93;;;12.90;99.90;;;;;;5067005;28;20131;-65
2022/06/15 01:26:20;;;;;;;11.02;7.13;;;12.80;99.90;;;;;;5066991;28;20052;-65
2022/06/15 01:28:47;;;;;;;8.40;6.05;;;12.80;99.90;;;;;;5066468;28;20480;-67
2022/06/15 01:31:48;;;;;;;9.93;6.93;;;12.80;99.90;;;;;;5067961;28;20041;-65
2022/06/15 01:34:27;;;;;;;8.27;7.13;;;12.80;99.90;;;;;;5068063;28;20048;-65
2022/06/15 01:37:29;;;;;;;7.50;6.78;;;12.70;99.90;;;;;;5067338;28;20040;-65
2022/06/15 01:40:10;;;;;;;8.93;7.25;;;12.70;99.90;;;;;;5067638;28;20115;-66
2022/06/15 01:43:11;;;;;;;8.68;6.75;;;12.70;99.90;;;;;;5067456;28;20044;-66
2022/06/15 01:45:39;;;;;;;8.05;7.18;;;12.60;99.90;;;;;;5034655;28;20060;-66
2022/06/15 01:48:08;;;;;;;8.73;6.57;;;12.60;99.90;;;;;;5067089;28;20044;-65
2022/06/15 01:50:45;;;;;;;9.13;6.55;;;12.60;99.90;;;;;;5067331;28;20052;-65
2022/06/15 01:53:30;;;;;;;9.23;7.43;;;12.60;99.90;;;;;;5066295;28;20052;-65
2022/06/15 01:56:05;;;;;;;7.38;6.60;;;12.60;99.90;;;;;;5067854;28;20080;-65
2022/06/15 01:58:34;;;;;;;11.40;7.15;;;12.50;99.90;;;;;;5066857;28;20052;-65
2022/06/15 02:01:12;;;;;;;8.23;6.90;;;12.50;99.90;;;;;;5066375;28;20094;-66
2022/06/15 02:03:59;;;;;;;8.90;6.15;;;12.50;99.90;;;;;;5066237;28;20190;-66
2022/06/15 02:06:33;;;;;;;7.55;6.78;;;12.50;99.90;;;;;;5066019;28;20182;-66
2022/06/15 02:09:14;;;;;;;9.45;6.90;;;12.40;99.90;;;;;;5067034;28;20040;-65
2022/06/15 02:11:42;;;;;;;7.18;6.47;;;12.40;99.90;;;;;;5066578;28;20660;-65
2022/06/15 02:14:16;;;;;;;7.05;6.15;;;12.40;99.90;;;;;;5065463;28;20048;-65
2022/06/15 02:16:49;;;;;;;10.32;6.43;;;12.40;99.90;;;;;;5067265;28;20394;-65
2022/06/15 02:19:20;;;;;;;8.65;6.18;;;12.30;99.90;;;;;;5066378;28;20044;-66
2022/06/15 02:21:50;;;;;;;8.43;7.20;;;12.30;99.90;;;;;;5067243;28;20174;-66
2022/06/15 02:24:19;;;;;;;10.55;6.10;;;12.20;99.90;;;;;;5065569;28;20493;-65
2022/06/15 02:26:45;;;;;;;9.93;6.65;;;12.20;99.90;;;;;;5065204;28;20680;-65
2022/06/15 02:29:18;;;;;;;7.47;5.72;;;12.10;99.90;;;;;;5065434;28;20049;-65
2022/06/15 02:31:44;;;;;;;7.97;6.63;;;12.20;99.90;;;;;;5066950;28;20123;-65
2022/06/15 02:34:10;;;;;;;7.20;5.88;;;12.10;99.90;;;;;;5066471;28;20044;-65
2022/06/15 02:36:36;;;;;;;7.00;5.90;;;12.10;99.90;;;;;;5066848;28;20086;-65
2022/06/15 02:39:04;;;;;;;8.70;6.45;;;12.10;99.90;;;;;;5064778;28;20056;-65
2022/06/15 02:41:30;;;;;;;6.93;6.22;;;12.20;99.90;;;;;;5065596;28;20044;-65
2022/06/15 02:43:58;;;;;;;7.90;6.75;;;12.20;99.90;;;;;;5065403;28;20093;-65
2022/06/15 02:46:26;;;;;;;7.05;6.35;;;12.20;99.90;;;;;;5066009;28;20048;-65
2022/06/15 02:48:53;;;;;;;10.48;6.78;;;12.20;99.90;;;;;;5064944;28;20060;-65
2022/06/15 02:51:38;;;;;;;8.40;6.68;;;12.20;99.90;;;;;;5066867;28;20052;-65
2022/06/15 02:54:24;;;;;;;6.93;6.28;;;12.30;99.90;;;;;;5065486;28;20416;-66
2022/06/15 02:56:51;;;;;;;6.78;5.28;;;12.30;99.90;;;;;;5065860;28;20123;-66
2022/06/15 02:59:17;;;;;;;7.50;6.30;;;12.30;99.90;;;;;;5066729;28;20076;-66
2022/06/15 03:01:43;;;;;;;12.02;6.38;;;12.40;99.90;;;;;;5065484;28;20501;-65
2022/06/15 03:04:08;;;;;;;6.82;6.15;;;12.40;99.90;;;;;;5064634;28;20056;-65
2022/06/15 03:06:34;;;;;;;7.97;6.47;;;12.30;99.90;;;;;;5064858;28;20055;-65
2022/06/15 03:09:00;;;;;;;7.38;5.78;;;12.30;99.90;;;;;;5064988;28;20135;-65
2022/06/15 03:11:26;;;;;;;7.55;6.82;;;12.30;99.90;;;;;;5066191;28;20049;-65
2022/06/15 03:13:53;;;;;;;8.00;6.47;;;12.30;99.90;;;;;;5066141;28;20523;-65
2022/06/15 03:16:19;;;;;;;8.27;6.60;;;12.30;99.90;;;;;;5065723;28;20040;-65
2022/06/15 03:18:46;;;;;;;10.68;6.15;;;12.30;99.90;;;;;;5066378;28;20048;-67
2022/06/15 03:21:11;;;;;;;9.82;6.57;;;12.40;99.90;;;;;;5065312;28;20505;-65
2022/06/15 03:23:37;;;;;;;10.75;6.82;;;12.40;99.90;;;;;;5065969;28;20051;-65
2022/06/15 03:26:04;;;;;;;7.93;6.60;;;12.40;99.90;;;;;;5065441;28;20674;-66
2022/06/15 03:28:30;;;;;;;9.40;6.78;;;12.30;99.90;;;;;;5065358;28;20041;-65
2022/06/15 03:30:57;;;;;;;7.25;6.20;;;12.40;99.90;;;;;;5066256;28;20091;-65
2022/06/15 03:33:22;;;;;;;6.80;5.93;;;12.50;99.90;;;;;;5066034;28;20489;-65
2022/06/15 03:35:48;;;;;;;6.43;5.80;;;12.50;99.90;;;;;;5064320;28;20044;-66
2022/06/15 03:38:14;;;;;;;7.07;6.20;;;12.50;99.90;;;;;;5065807;28;20036;-65
2022/06/15 03:40:43;;;;;;;9.05;6.32;;;12.50;99.90;;;;;;5065693;28;20098;-65
2022/06/15 03:43:09;;;;;;;6.40;5.78;;;12.50;99.90;;;;;;5064021;28;20048;-65
2022/06/15 03:45:36;;;;;;;6.93;6.13;;;13.00;99.90;;;;;;5064714;28;20049;-65
2022/06/15 03:48:02;;;;;;;8.90;6.88;;;12.60;99.90;;;;;;5065428;28;20041;-65
2022/06/15 03:50:31;;;;;;;6.70;5.38;;;12.60;99.90;;;;;;5063726;28;20050;-66
2022/06/15 03:52:58;;;;;;;10.13;6.43;;;12.60;99.90;;;;;;5065364;28;20048;-67
2022/06/15 03:55:24;;;;;;;8.93;6.78;;;12.60;99.90;;;;;;5065896;28;20491;-65
2022/06/15 03:57:50;;;;;;;6.65;5.85;;;12.70;99.90;;;;;;5064292;28;20132;-65
2022/06/15 04:00:20;;;;;;;6.90;5.72;;;12.70;99.90;;;;;;5065990;28;20485;-65
2022/06/15 04:02:46;;;;;;;8.35;6.15;;;12.70;99.90;;;;;;5065891;28;20094;-67
2022/06/15 04:05:18;;;;;;;6.10;5.25;;;12.70;99.90;;;;;;5064766;28;20053;-65
2022/06/15 04:10:28;;;;;;;8.80;5.35;;;12.70;99.90;;;;;;5063996;28;20087;-65
2022/06/15 04:12:53;;;;;;;6.93;6.00;;;12.70;99.90;;;;;;5065536;28;20708;-65
2022/06/15 04:15:19;;;;;;;7.30;5.00;;;12.70;99.90;;;;;;5065927;28;20487;-65
2022/06/15 04:17:45;;;;;;;7.95;5.85;;;12.70;99.90;;;;;;5064797;28;20124;-65
2022/06/15 04:20:33;;;;;;;5.90;5.20;;;12.70;99.90;;;;;;5064215;28;20179;-64
2022/06/15 04:23:07;;;;;;;8.02;6.13;;;12.70;99.90;;;;;;5066234;28;20041;-66
2022/06/15 04:25:44;;;;;;;8.55;6.03;;;12.70;99.90;;;;;;5068576;28;20504;-66
2022/06/15 04:28:11;;;;;;;7.32;6.05;;;12.80;99.90;;;;;;5067570;28;20044;-66
2022/06/15 04:30:37;;;;;;;6.00;4.45;;;12.80;99.90;;;;;;5069312;28;20068;-65
2022/06/15 04:33:03;;;;;;;7.50;5.25;;;12.90;99.90;;;;;;5066976;28;20512;-65
2022/06/15 04:35:29;;;;;;;8.02;5.47;;;12.90;99.90;;;;;;5069208;28;20052;-65
2022/06/15 04:37:55;;;;;;;7.25;5.28;;;13.30;99.90;;;;;;5068102;28;20060;-65
2022/06/15 04:40:20;;;;;;;7.65;5.18;;;13.00;99.90;;;;;;5068037;28;20049;-67
2022/06/15 04:42:46;;;;;;;5.90;5.30;;;13.00;99.90;;;;;;5068858;28;20036;-66
2022/06/15 04:45:13;;;;;;;5.85;5.20;;;13.10;99.90;;;;;;5068904;28;20079;-65
2022/06/15 04:47:39;;;;;;;6.72;4.70;;;13.10;99.90;;;;;;5067024;28;20040;-65
2022/06/15 04:50:06;;;;;;;5.95;5.38;;;13.20;99.90;;;;;;5068611;28;20375;-65
2022/06/15 04:52:32;;;;;;;7.70;5.90;;;13.20;99.90;;;;;;5068338;28;20049;-65
2022/06/15 04:54:58;;;;;;;5.90;4.80;;;13.20;99.90;;;;;;5068486;28;20048;-65
2022/06/15 04:57:24;;;;;;;5.80;5.20;;;13.30;99.90;;;;;;5068905;28;20048;-65
2022/06/15 04:59:50;;;;;;;8.77;5.03;;;13.30;99.90;;;;;;5068311;28;20118;-65
2022/06/15 05:02:15;;;;;;;10.75;5.65;;;13.40;99.90;;;;;;5068918;28;20120;-65
2022/06/15 05:04:42;;;;;;;6.45;5.28;;;13.40;99.90;;;;;;5068495;28;20488;-65
2022/06/15 05:07:08;;;;;;;10.75;5.25;;;13.40;99.90;;;;;;5068094;28;20041;-66
2022/06/15 05:09:34;;;;;;;10.55;5.53;;;13.70;99.90;;;;;;5068625;28;20408;-65
2022/06/15 05:11:59;;;;;;;5.68;4.95;;;13.50;99.90;;;;;;5068088;28;20543;-65
2022/06/15 05:14:25;;;;;;;7.10;4.82;;;13.50;99.90;;;;;;5067874;28;20084;-66
2022/06/15 05:16:51;;;;;;;11.70;4.57;;;13.90;99.90;;;;;;5068225;28;20048;-66
2022/06/15 05:19:16;;;;;;;8.45;4.22;;;13.60;99.90;;;;;;5064484;28;20820;-65
2022/06/15 05:21:44;;;;;;;8.77;4.78;;;13.70;99.90;;;;;;5050711;28;20048;-64
2022/06/15 05:24:10;;;;;;;4.78;3.90;;;13.70;99.90;;;;;;5047824;28;20049;-66
2022/06/15 05:26:36;;;;;;;8.95;4.20;;;13.80;99.90;;;;;;5048094;28;20116;-66
2022/06/15 05:29:03;;;;;;;6.28;4.80;;;13.80;99.90;;;;;;5047518;28;20593;-65
2022/06/15 05:31:28;;;;;;;10.50;4.60;;;13.90;99.90;;;;;;5048178;28;20052;-65
2022/06/15 05:33:56;;;;;;;7.68;3.85;;;14.00;99.90;;;;;;5047906;28;20123;-64
2022/06/15 05:36:28;;;;;;;5.72;4.22;;;14.00;99.90;;;;;;5045805;28;20059;-65
2022/06/15 05:38:54;;;;;;;4.35;3.92;;;14.10;99.90;;;;;;5048014;28;20516;-65
2022/06/15 05:41:20;;;;;;;5.22;3.90;;;14.20;99.90;;;;;;5048583;28;20033;-65
2022/06/15 05:46:27;;;;;;;6.30;4.20;;;14.30;99.90;;;;;;5047974;28;20049;-65
2022/06/15 05:48:54;;;;;;;5.97;4.03;;;14.40;99.90;;;;;;5047016;28;20413;-65
2022/06/15 05:51:20;;;;;;;3.78;3.47;;;14.40;99.90;;;;;;5047824;28;20152;-64
2022/06/15 05:53:46;;;;;;;4.30;3.75;;;14.50;99.90;;;;;;5046566;28;20041;-65
2022/06/15 05:56:11;;;;;;;5.00;3.65;;;14.50;99.90;;;;;;5047044;28;20043;-65
2022/06/15 05:58:37;;;;;;;5.63;4.00;;;14.80;99.90;;;;;;5046371;28;20122;-65
2022/06/15 06:01:26;;;;;;;6.07;3.72;;;14.60;99.90;;;;;;5047342;28;20045;-65
2022/06/15 06:03:52;;;;;;;7.68;4.00;;;14.60;99.90;;;;;;5038334;28;20523;-65
2022/06/15 06:06:18;;;;;;;7.68;3.88;;;14.60;99.90;;;;;;5047503;28;20135;-65
2022/06/15 06:08:44;;;;;;;11.80;5.32;;;14.60;99.90;;;;;;5047260;28;20080;-66
2022/06/15 06:11:09;;;;;;;10.25;4.50;;;14.70;99.90;;;;;;5046563;28;20087;-65
2022/06/15 06:13:35;;;;;;;7.22;4.05;;;14.70;99.90;;;;;;5047526;28;20080;-65
2022/06/15 06:16:01;;;;;;;5.53;4.07;;;14.70;99.90;;;;;;5046991;28;20045;-65
2022/06/15 06:18:26;;;;;;;7.97;4.57;;;14.80;99.90;;;;;;5046171;28;20158;-65
2022/06/15 06:20:53;;;;;;;4.07;3.78;;;14.80;99.90;;;;;;5046815;28;20053;-65
2022/06/15 06:23:19;;;;;;;11.32;4.60;;;14.90;99.90;;;;;;5047245;28;20065;-66
2022/06/15 06:25:50;;;;;;;5.00;3.67;;;14.90;99.90;;;;;;5044840;28;20044;-65
2022/06/15 06:28:32;;;;;;;6.80;4.45;;;15.00;99.90;;;;;;5046960;28;20572;-65
2022/06/15 06:30:59;;;;;;;6.97;4.38;;;15.00;99.90;;;;;;5046113;28;20076;-66
2022/06/15 06:33:26;;;;;;;7.10;3.67;;;15.10;99.90;;;;;;5053528;28;20123;-65
2022/06/15 06:35:54;;;;;;;6.82;3.83;;;15.10;99.90;;;;;;5052793;28;20053;-65
2022/06/15 06:38:21;;;;;;;6.05;3.53;;;15.20;99.90;;;;;;5051798;28;20414;-65
2022/06/15 06:40:54;;;;;;;6.90;3.50;;;15.20;99.90;;;;;;5046599;28;20048;-65
2022/06/15 06:43:19;;;;;;;4.93;3.60;;;15.30;99.90;;;;;;5047128;28;20049;-65
2022/06/15 06:45:46;;;;;;;5.22;3.92;;;15.30;99.90;;;;;;5046030;28;20118;-67
2022/06/15 06:48:12;;;;;;;7.75;4.35;;;15.40;99.90;;;;;;5056849;28;20567;-66
2022/06/15 06:50:39;;;;;;;9.85;4.10;;;15.40;99.90;;;;;;5046371;28;20088;-65
2022/06/15 06:53:05;;;;;;;6.65;3.92;;;15.50;99.90;;;;;;5050728;28;20052;-65
2022/06/15 06:55:31;;;;;;;8.95;4.13;;;15.50;99.90;;;;;;5045606;28;20048;-65
2022/06/15 06:57:58;;;;;;;6.28;3.80;;;15.60;99.90;;;;;;5045831;28;20048;-65
2022/06/15 07:00:25;;;;;;;10.75;3.90;;;15.70;99.90;;;;;;5043539;28;20044;-66
2022/06/15 07:02:51;;;;;;;5.07;3.38;;;15.70;99.90;;;;;;5051164;28;20044;-66
2022/06/15 07:05:17;;;;;;;4.82;3.33;;;15.70;99.90;;;;;;5064942;28;20405;-65
2022/06/15 07:07:43;;;;;;;4.90;3.17;;;15.80;99.90;;;;;;5044707;28;20489;-65
2022/06/15 07:10:09;;;;;;;7.80;3.58;;;15.80;99.90;;;;;;5046058;28;20098;-65
2022/06/15 07:12:36;;;;;;;9.20;3.42;;;16.00;99.90;;;;;;5045908;28;20436;-65
2022/06/15 07:15:03;;;;;;;5.82;3.33;;;16.10;99.90;;;;;;5045376;28;20053;-65
2022/06/15 07:17:29;;;;;;;4.50;3.72;;;16.20;99.90;;;;;;5044404;28;20091;-67
2022/06/15 07:19:55;;;;;;;3.80;2.85;;;16.30;99.90;;;;;;5053090;28;20080;-68
2022/06/15 07:22:21;;;;;;;3.22;2.50;;;16.30;99.90;;;;;;5044318;28;20052;-71
2022/06/15 07:24:46;;;;;;;6.68;2.72;;;16.60;99.90;;;;;;5065241;28;20040;-68
2022/06/15 07:27:13;;;;;;;7.30;3.00;;;16.30;99.90;;;;;;5065457;28;20097;-71
2022/06/15 07:29:38;;;;;;;7.05;2.53;;;16.40;99.90;;;;;;5047537;28;20053;-71
2022/06/15 07:32:05;;;;;;;5.30;3.00;;;16.40;99.90;;;;;;5045281;28;20033;-70
2022/06/15 07:34:31;;;;;;;3.95;2.50;;;16.60;99.90;;;;;;5046924;28;20560;-70
2022/06/15 07:36:57;;;;;;;3.42;2.17;;;16.80;99.90;;;;;;5045911;28;20037;-70
2022/06/15 07:39:28;;;;;;;6.90;2.97;;;17.60;99.90;;;;;;5048757;28;20095;-71
2022/06/15 07:41:55;;;;;;;3.90;2.67;;;16.90;99.90;;;;;;5045800;28;20052;-71
2022/06/15 07:44:22;;;;;;;6.47;3.20;;;17.10;99.90;;;;;;5053245;28;20075;-72
2022/06/15 07:46:48;;;;;;;4.22;1.80;;;17.10;99.90;;;;;;5050095;28;20049;-71
2022/06/15 07:52:03;;;;;;;2.85;2.33;;;17.40;99.90;;;;;;5057282;28;20457;-71
2022/06/15 07:54:29;;;;;;;3.92;2.50;;;17.50;99.90;;;;;;5050309;28;20071;-71
2022/06/15 07:56:56;;;;;;;4.60;2.33;;;17.50;99.90;;;;;;5044146;28;20041;-71
2022/06/15 07:59:24;;;;;;;5.53;2.40;;;17.60;99.90;;;;;;5047617;28;20095;-71
2022/06/15 08:01:50;;;;;;;3.03;2.33;;;17.60;99.90;;;;;;5047045;28;20037;-71
2022/06/15 08:04:16;;;;;;;5.40;2.30;;;17.60;99.90;;;;;;5050665;28;20041;-73
2022/06/15 08:06:44;;;;;;;5.50;2.15;;;17.80;99.90;;;;;;5048896;28;20049;-71
2022/06/15 08:09:13;;;;;;;5.93;2.60;;;17.70;99.90;;;;;;5048356;28;20485;-71
2022/06/15 08:12:11;;;;;;;4.82;2.70;;;17.70;99.90;;;;;;5032498;28;20041;-71
2022/06/15 08:14:26;;;;;;;7.53;3.35;;;17.70;99.90;;;;;;5049681;28;20040;-71
2022/06/15 08:16:52;;;;;;;6.72;2.45;;;17.60;99.90;;;;;;5051611;28;20131;-70
2022/06/15 08:19:17;;;;;;;4.70;2.40;;;17.60;99.90;;;;;;5048420;28;20056;-71
2022/06/15 08:21:43;;;;;;;3.58;2.30;;;17.60;99.90;;;;;;5048327;28;20099;-71
2022/06/15 08:24:08;;;;;;;4.38;1.80;;;17.70;99.90;;;;;;5049490;28;20043;-71
2022/06/15 08:26:37;;;;;;;4.13;1.92;;;17.70;99.90;;;;;;5048308;28;20045;-70
2022/06/15 08:29:09;;;;;;;4.15;2.13;;;17.80;99.90;;;;;;5053130;28;20102;-71
2022/06/15 08:31:36;;;;;;;3.63;2.15;;;17.90;99.90;;;;;;5046099;28;20301;-70
2022/06/15 08:34:03;;;;;;;3.67;2.10;;;18.10;99.90;;;;;;5046382;28;20501;-71
2022/06/15 08:36:29;;;;;;;4.88;2.38;;;18.40;99.90;;;;;;5047953;28;20115;-73
2022/06/15 08:38:56;;;;;;;4.05;2.25;;;18.30;99.90;;;;;;5049866;28;20159;-71
2022/06/15 08:41:28;;;;;;;3.25;2.08;;;18.20;99.90;;;;;;5050681;28;20115;-71
2022/06/15 08:43:59;;;;;;;11.30;2.60;;;18.10;99.90;;;;;;5056786;28;20049;-71
2022/06/15 08:46:40;;;;;;;6.53;2.33;;;18.10;99.90;;;;;;5048077;28;20049;-71
2022/06/15 08:50:07;;;;;;;4.63;2.60;;;18.20;99.90;;;;;;5050986;28;20525;-72
2022/06/15 08:52:53;;;;;;;6.90;2.35;;;18.40;99.90;;;;;;5024497;28;20064;-63
2022/06/15 08:55:37;;;;;;;4.32;2.50;;;18.40;99.90;;;;;;5051596;28;20045;-71
2022/06/15 08:58:20;;;;;;;4.68;2.85;;;18.40;99.90;;;;;;5051923;28;20052;-71
2022/06/15 09:00:47;;;;;;;6.53;3.25;;;18.40;99.90;;;;;;5047262;28;20045;-71
2022/06/15 09:03:40;;;;;;;4.68;2.53;;;18.50;99.90;;;;;;5049519;28;20134;-71
2022/06/15 09:06:34;;;;;;;3.78;2.97;;;18.30;99.90;;;;;;5045468;28;20081;-70
2022/06/15 09:09:02;;;;;;;3.40;2.75;;;18.10;99.90;;;;;;5051499;28;20041;-70
2022/06/15 09:11:49;;;;;;;4.35;2.35;;;18.00;99.90;;;;;;5052164;28;20041;-71
2022/06/15 09:14:32;;;;;;;4.38;2.70;;;18.00;99.90;;;;;;5054336;28;20045;-70
2022/06/15 09:17:10;;;;;;;3.95;2.00;;;18.10;99.90;;;;;;5049333;28;20057;-71
2022/06/15 09:19:46;;;;;;;5.80;3.00;;;18.00;99.90;;;;;;5047277;28;20061;-71
2022/06/15 09:22:22;;;;;;;7.40;2.70;;;18.00;99.90;;;;;;5052254;28;20504;-70
2022/06/15 09:24:53;;;;;;;3.58;2.85;;;17.90;99.90;;;;;;5047155;28;20060;-71
2022/06/15 09:27:25;;;;;;;4.22;2.47;;;17.90;99.90;;;;;;5048128;28;20048;-71
2022/06/15 09:30:07;;;;;;;7.22;2.70;;;17.90;99.90;;;;;;5046613;28;20129;-71
2022/06/15 09:32:43;;;;;;;3.38;2.67;;;17.90;99.90;;;;;;5046382;28;20417;-71
2022/06/15 09:35:09;;;;;;;4.88;2.20;;;17.90;99.90;;;;;;5045651;28;20513;-71
2022/06/15 09:37:36;;;;;;;7.88;3.15;;;17.90;99.90;;;;;;5054727;28;20048;-70
2022/06/15 09:40:04;;;;;;;4.18;2.80;;;17.90;99.90;;;;;;5047805;28;20052;-70
2022/06/15 09:42:45;;;;;;;3.85;2.60;;;18.00;99.90;;;;;;5050440;28;20040;-71
2022/06/15 09:45:27;;;;;;;4.35;2.55;;;18.20;99.90;;;;;;5046671;28;20045;-71
2022/06/15 09:48:11;;;;;;;3.97;2.10;;;18.40;99.90;;;;;;5047069;28;20084;-71
2022/06/15 09:50:55;;;;;;;3.30;2.10;;;18.60;99.90;;;;;;5047106;28;22211;-71
2022/06/15 09:53:21;;;;;;;10.20;3.15;;;18.80;99.90;;;;;;5046031;28;20048;-70
2022/06/15 09:55:56;;;;;;;6.57;2.55;;;19.00;99.90;;;;;;5046123;28;20760;-71
2022/06/15 09:58:27;;;;;;;6.32;1.90;;;19.20;99.90;;;;;;5048302;28;20079;-71
2022/06/15 10:00:53;;;;;;;7.32;2.17;;;19.30;99.90;;;;;;5047193;28;20390;-71
2022/06/15 10:03:41;;;;;;;3.67;2.47;;;19.80;99.90;;;;;;5060233;28;20044;-71
2022/06/15 10:06:30;;;;;;;6.68;2.78;;;19.50;99.90;;;;;;5059364;28;20032;-71
2022/06/15 10:08:58;;;;;;;5.53;2.30;;;18.50;99.90;;;;;;5065290;28;20097;-71
2022/06/15 10:11:36;;;;;;;2.58;1.92;;;19.70;99.90;;;;;;5051737;28;20063;-71
2022/06/15 10:14:37;;;;;;;10.52;2.13;;;19.90;99.90;;;;;;5046708;28;20045;-71
2022/06/15 10:17:21;;;;;;;4.55;1.70;;;19.90;99.90;;;;;;5015672;28;20060;-61
2022/06/15 10:19:50;;;;;;;3.83;1.80;;;20.10;99.90;;;;;;5045395;28;20377;-67
2022/06/15 10:22:29;;;;;;;5.60;2.17;;;20.00;99.90;;;;;;5045932;28;20056;-68
2022/06/15 10:24:58;;;;;;;3.88;1.77;;;20.00;99.90;;;;;;5052549;28;20401;-68
2022/06/15 10:27:23;;;;;;;2.20;1.50;;;20.00;99.90;;;;;;5055235;28;20075;-68
2022/06/15 10:30:12;;;;;;;3.85;1.83;;;20.00;99.90;;;;;;5061857;28;20512;-69
2022/06/15 10:33:03;;;;;;;3.35;2.33;;;20.10;99.90;;;;;;5075119;28;20056;-69
2022/06/15 10:35:35;;;;;;;4.10;2.42;;;20.20;99.90;;;;;;5050761;28;20049;-69
2022/06/15 10:38:09;;;;;;;3.92;2.55;;;20.30;99.90;;;;;;5043664;28;20037;-68
2022/06/15 10:40:37;;;;;;;5.60;2.63;;;20.30;99.90;;;;;;5046601;28;20044;-68
2022/06/15 10:43:16;;;;;;;4.15;2.67;;;20.20;99.90;;;;;;5045319;28;20065;-68
2022/06/15 10:46:05;;;;;;;3.47;3.13;;;19.90;99.90;;;;;;5045832;28;20053;-68
2022/06/15 10:48:46;;;;;;;7.75;2.78;;;19.80;99.90;;;;;;5046752;28;20047;-68
2022/06/15 10:51:27;;;;;;;4.60;2.93;;;19.60;99.90;;;;;;5044544;28;20111;-68
2022/06/15 10:54:19;;;;;;;5.20;2.90;;;19.40;99.90;;;;;;5050588;28;20385;-69
2022/06/15 11:02:37;;;;;;;5.65;2.95;;;19.10;99.90;;;;;;5050153;28;20052;-69
2022/06/15 11:05:09;;;;;;;5.30;2.53;;;19.10;99.90;;;;;;5056508;28;20044;-70
2022/06/15 11:07:53;;;;;;;4.32;2.88;;;19.10;99.90;;;;;;5061849;28;20136;-70
2022/06/15 11:10:27;;;;;;;3.35;2.17;;;19.10;99.90;;;;;;5053279;28;20080;-70
2022/06/15 11:13:03;;;;;;;5.95;2.30;;;19.20;99.90;;;;;;5045553;28;20041;-70
2022/06/15 11:18:29;;;;;;;3.17;2.17;;;19.10;99.90;;;;;;5060911;28;20057;-70
2022/06/15 11:21:23;;;;;;;4.57;2.70;;;19.10;99.90;;;;;;5053847;28;20048;-70
2022/06/15 11:24:00;;;;;;;4.60;2.47;;;19.10;99.90;;;;;;5045032;28;20432;-70
2022/06/15 11:26:54;;;;;;;4.75;2.42;;;19.10;99.90;;;;;;5043822;28;20049;-70
2022/06/15 11:29:45;;;;;;;4.50;3.00;;;19.20;99.90;;;;;;5055186;28;20088;-69
2022/06/15 11:32:14;;;;;;;2.65;2.28;;;19.30;99.90;;;;;;5045023;28;20053;-70
2022/06/15 11:34:49;;;;;;;5.07;2.40;;;19.30;99.90;;;;;;5047940;28;20048;-70
2022/06/15 11:37:31;;;;;;;3.80;2.63;;;19.40;99.90;;;;;;5053641;28;20040;-70
2022/06/15 11:40:11;;;;;;;4.07;2.67;;;19.50;99.90;;;;;;5049975;28;20147;-70
2022/06/15 11:42:36;;;;;;;6.68;2.42;;;19.80;99.90;;;;;;5044282;28;20056;-71
2022/06/15 11:45:02;;;;;;;4.82;2.83;;;20.00;99.90;;;;;;5043980;28;20045;-70
2022/06/15 11:47:48;;;;;;;4.55;2.60;;;20.20;99.90;;;;;;5054309;28;20764;-70
2022/06/15 11:50:21;;;;;;;7.22;3.03;;;20.20;99.90;;;;;;5050902;28;20052;-70
2022/06/15 11:53:01;;;;;;;5.55;2.97;;;20.30;99.90;;;;;;5048302;28;20509;-70
2022/06/15 11:55:42;;;;;;;5.55;3.00;;;20.20;99.90;;;;;;5048286;28;20581;-67
2022/06/15 11:58:13;;;;;;;4.00;2.35;;;20.20;99.90;;;;;;5051836;28;20400;-70
2022/06/15 12:01:10;;;;;;;3.83;2.35;;;20.30;99.90;;;;;;5064260;28;20508;-70
2022/06/15 12:04:01;;;;;;;4.30;2.47;;;20.50;99.90;;;;;;5045428;28;20044;-71
2022/06/15 12:06:48;;;;;;;5.65;2.95;;;20.80;99.90;;;;;;5044820;28;20059;-70
2022/06/15 12:09:53;;;;;;;2.30;2.10;;;20.80;99.90;;;;;;5061632;28;20512;-70
2022/06/15 12:12:39;;;;;;;4.10;2.33;;;20.70;99.90;;;;;;5066014;28;20204;-69
2022/06/15 12:15:26;;;;;;;6.32;2.92;;;20.80;99.90;;;;;;5065302;28;20103;-70
2022/06/15 12:18:18;;;;;;;3.97;1.95;;;20.70;99.90;;;;;;5052057;28;20052;-70
2022/06/15 12:21:15;;;;;;;3.92;2.15;;;20.70;99.90;;;;;;5043889;28;20483;-70
2022/06/15 12:23:58;;;;;;;4.10;2.38;;;20.80;99.90;;;;;;5055098;28;20135;-70
2022/06/15 12:26:41;;;;;;;5.75;2.95;;;20.90;99.90;;;;;;5056469;28;20565;-70
2022/06/15 12:29:16;;;;;;;3.78;1.90;;;21.00;99.90;;;;;;5065514;28;20396;-70
2022/06/15 12:34:50;;;;;;;5.10;2.25;;;21.30;99.90;;;;;;5046182;28;20088;-68
2022/06/15 12:37:30;;;;;;;4.22;2.47;;;21.20;99.90;;;;;;5061844;28;20119;-69
2022/06/15 12:40:02;;;;;;;3.63;2.58;;;21.20;99.00;;;;;;5065996;28;20059;-68
2022/06/15 12:42:28;;;;;;;4.18;2.50;;;20.90;99.90;;;;;;5065622;28;20045;-69
2022/06/15 12:45:05;;;;;;;3.88;1.98;;;21.00;99.50;;;;;;5066597;28;20447;-68
2022/06/15 12:47:33;;;;;;;3.00;2.28;;;21.20;98.50;;;;;;5060291;28;20045;-69
2022/06/15 12:50:05;;;;;;;4.68;2.28;;;21.30;97.20;;;;;;5048601;28;20049;-69
2022/06/15 12:52:44;;;;;;;3.95;1.88;;;21.40;97.00;;;;;;5053924;28;20391;-69
2022/06/15 12:55:33;;;;;;;6.97;1.80;;;21.50;95.90;;;;;;5048688;28;20037;-69
2022/06/15 12:58:23;;;;;;;2.55;1.83;;;21.30;95.80;;;;;;5046535;28;20473;-72
2022/06/15 13:01:11;;;;;;;6.78;2.10;;;21.40;97.70;;;;;;5047450;28;20057;-68
2022/06/15 13:04:04;;;;;;;2.92;1.52;;;21.60;97.50;;;;;;5048784;28;20051;-68
2022/06/15 13:06:39;;;;;;;5.38;1.92;;;21.80;96.60;;;;;;5047959;28;20045;-69
2022/06/15 13:09:11;;;;;;;2.50;2.10;;;21.90;94.10;;;;;;5048152;28;20431;-68
2022/06/15 13:11:46;;;;;;;;;;;21.90;94.90;;;;;;5054618;28;20051;-68
2022/06/15 13:14:24;;;;;;;6.53;2.15;;;21.90;94.20;;;;;;5047334;28;20328;-68
2022/06/15 13:17:10;;;;;;;4.07;1.73;;;21.80;94.70;;;;;;5046896;28;20049;-68
2022/06/15 13:19:41;;;;;;;4.20;1.95;;;21.90;90.30;;;;;;5047423;28;20060;-68
2022/06/15 13:22:31;;;;;;;2.20;1.60;;;21.90;90.90;;;;;;5047039;28;20084;-70
2022/06/15 13:25:03;;;;;;;2.50;1.50;;;22.00;90.10;;;;;;5047465;28;20488;-68
2022/06/15 13:27:38;;;;;;;4.10;1.85;;;22.10;90.00;;;;;;5059352;28;20123;-68
2022/06/15 13:30:10;;;;;;;3.58;1.85;;;22.10;84.00;;;;;;5050861;28;20504;-71
2022/06/15 13:32:58;;;;;;;5.18;1.90;;;22.10;82.40;;;;;;5053264;28;20057;-70
2022/06/15 13:35:23;;;;;;;3.13;1.48;;;22.20;80.60;;;;;;5052790;28;20056;-67